This is the latest recevied weather packets stored in our database for station/object VE1AIC-4. If no packets are shown the sender has not sent any weather packets the latest 10 day(s).
| Time | Temp. | Humidity | Pressure | Rain* | Wind** | Luminosity | Snow |
|---|---|---|---|---|---|---|---|
| 1777576886 | 11.11° C | 72% | 1013.4 hPa | 0 mm | - | 443 W/m² | - |
| 1777576300 | 11.11° C | 71% | 1013.5 hPa | 0 mm | - | 499 W/m² | - |
| 1777569047 | 10° C | 72% | 1014.9 hPa | 0 mm | - | 353 W/m² | - |
| 1777566087 | 9.44° C | 74% | 1015.5 hPa | 0 mm | - | 691 W/m² | - |
| 1777564826 | 8.89° C | 75% | 1015.5 hPa | 0 mm | - | 523 W/m² | - |
| 1777563037 | 7.78° C | 76% | 1015.9 hPa | 0 mm | - | 424 W/m² | - |
| 1777560704 | 7.22° C | 78% | 1016.4 hPa | 0 mm | - | 356 W/m² | - |
| 1777557686 | 6.11° C | 79% | 1016.6 hPa | 0 mm | - | 324 W/m² | - |
| 1777555237 | 6.11° C | 78% | 1016.9 hPa | 0 mm | - | 386 W/m² | - |
| 1777554629 | 6.11° C | 79% | 1016.8 hPa | 0 mm | - | 391 W/m² | - |
| 1777547436 | 3.89° C | 85% | 1017.2 hPa | 0 mm | - | 162 W/m² | - |
| 1777546853 | 3.89° C | 85% | 1017 hPa | 0 mm | - | 131 W/m² | - |
| 1777546325 | 3.89° C | 85% | 1017.2 hPa | 0 mm | - | 132 W/m² | - |
| 1777541236 | 2.78° C | 86% | 1016.6 hPa | 0 mm | - | 6 W/m² | - |
| 1777536400 | 2.78° C | 86% | 1016.3 hPa | 0 mm | - | 0 W/m² | - |
| 1777531565 | 2.78° C | 85% | 1017.1 hPa | 0 mm | - | 0 W/m² | - |
| 1777530944 | 2.78° C | 85% | 1017.2 hPa | 0 mm | - | 0 W/m² | - |
| 1777527318 | 3.33° C | 85% | 1017.5 hPa | 0 mm | - | 0 W/m² | - |
| 1777525519 | 3.33° C | 85% | 1017.6 hPa | 0 mm | - | 0 W/m² | - |
| 1777523721 | 3.33° C | 85% | 1018 hPa | 0 mm | - | 0 W/m² | - |
| 1777522564 | 3.33° C | 84% | 1018.1 hPa | 0 mm | - | 0 W/m² | - |
| 1777517738 | 3.89° C | 82% | 1018.2 hPa | 0 mm | - | 0 W/m² | - |
| 1777515321 | 5° C | 81% | 1018.1 hPa | 0 mm | - | 0 W/m² | - |
| 1777512447 | 5.56° C | 77% | 1018.5 hPa | 0 mm | - | 0 W/m² | - |
| 1777511135 | 5.56° C | 76% | 1018.7 hPa | 0 mm | - | 0 W/m² | - |
* Rain latest hour (hover to see other rain measurements)
** Current wind speed in m/s (hover to see current wind gust speed)